Teays, West Virginia
Current Conditions -  °F | °C
As of 4:54 AM on Tuesday 21 Oct 2014 (Local Time) from KCRW Reporting Station
Overcast Overcast  
Wind Chill: 51°   Ceiling: 6000
Heat Index: 51°   Visibility: 10mi
Dew Point: 49°   Wind: 3mph
Humidity: 92%   Direction: 210°SSW
Pressure: 29.9"   Gusts: NA
Location:  38.44°N, 81.95°W
Report Text: KCRW 210854Z 21003KT 10SM BKN060 OVC080 11/09 A2990 RMK AO2 SLP124 60004 T01060094 58006
Loading
Personal Weather Stations






























Interactive Weather Map
Tropical Storm Tracking
New forecast layout! Learn more

10-Day Weather Forecast

Advertisements
Track Severe Weather on mobile